createdAt,value
2022-12-15T00:01:49.828Z,86.43
2022-12-15T00:04:34.712Z,86.64
2022-12-15T00:07:19.600Z,86.93
2022-12-15T00:10:04.480Z,86.45
2022-12-15T00:12:49.398Z,86.87
2022-12-15T00:15:34.612Z,86.56
2022-12-15T00:18:24.071Z,86.40
2022-12-15T00:21:09.196Z,86.52
2022-12-15T00:23:54.953Z,86.18
2022-12-15T00:26:39.902Z,86.37
2022-12-15T00:29:25.324Z,86.33
2022-12-15T00:32:10.191Z,86.33
2022-12-15T00:34:55.224Z,85.91
2022-12-15T00:37:39.966Z,85.64
2022-12-15T00:40:07.374Z,85.91
2022-12-15T00:42:34.022Z,85.86
2022-12-15T00:45:01.127Z,85.67
2022-12-15T00:47:27.540Z,85.79
2022-12-15T00:50:12.513Z,85.65
2022-12-15T00:52:57.292Z,85.96
2022-12-15T00:55:42.032Z,86.28
2022-12-15T00:58:26.804Z,86.04
2022-12-15T01:01:11.776Z,86.40
2022-12-15T01:03:56.801Z,85.97
2022-12-15T01:06:42.104Z,85.83
2022-12-15T01:09:29.239Z,86.26
2022-12-15T01:12:14.113Z,85.84
2022-12-15T01:14:59.259Z,85.58
2022-12-15T01:17:44.289Z,85.02
2022-12-15T01:20:32.695Z,85.05
2022-12-15T01:22:59.133Z,85.29
2022-12-15T01:25:26.054Z,85.40
2022-12-15T01:27:52.883Z,85.18
2022-12-15T01:30:24.056Z,85.65
2022-12-15T01:32:51.061Z,86.01
2022-12-15T01:35:17.907Z,85.42
2022-12-15T01:37:44.786Z,86.09
2022-12-15T01:40:35.393Z,86.23
2022-12-15T01:43:01.870Z,85.84
2022-12-15T01:45:31.331Z,85.98
2022-12-15T01:48:06.137Z,85.76
2022-12-15T01:50:37.945Z,86.10
2022-12-15T01:53:04.494Z,85.90
2022-12-15T01:55:32.238Z,85.82
2022-12-15T01:58:06.792Z,85.93
2022-12-15T02:00:34.295Z,85.98
2022-12-15T02:03:02.129Z,85.83
2022-12-15T02:05:31.724Z,85.76
2022-12-15T02:08:00.436Z,85.71
2022-12-15T02:10:37.480Z,86.06
2022-12-15T02:13:09.792Z,85.85
2022-12-15T02:15:42.232Z,85.89
2022-12-15T02:18:51.322Z,85.48
2022-12-15T02:21:35.265Z,86.01
2022-12-15T02:24:49.682Z,86.33
2022-12-15T02:27:16.319Z,86.00
2022-12-15T02:30:13.644Z,86.25
2022-12-15T02:32:50.118Z,86.10
2022-12-15T02:35:55.175Z,85.72
2022-12-15T02:38:34.478Z,85.84
2022-12-15T02:41:02.963Z,86.23
2022-12-15T02:43:33.521Z,85.89
2022-12-15T02:46:15.419Z,85.52
2022-12-15T02:48:48.754Z,85.26
2022-12-15T02:51:27.645Z,85.24
2022-12-15T02:54:03.944Z,85.04
2022-12-15T02:57:12.096Z,85.07
2022-12-15T02:59:55.473Z,85.37
2022-12-15T03:02:26.503Z,85.81
2022-12-15T03:04:53.903Z,86.53
2022-12-15T03:07:23.408Z,86.70
2022-12-15T03:09:49.896Z,87.10
2022-12-15T03:12:16.446Z,87.14
2022-12-15T03:14:42.871Z,87.05
2022-12-15T03:17:09.430Z,86.99
2022-12-15T03:19:36.058Z,87.81
2022-12-15T03:22:02.633Z,87.47
2022-12-15T03:24:29.047Z,87.32
2022-12-15T03:26:55.854Z,87.17
2022-12-15T03:29:22.302Z,87.83
2022-12-15T03:31:49.919Z,87.95
2022-12-15T03:34:17.057Z,88.16
2022-12-15T03:36:43.823Z,88.10
2022-12-15T03:39:10.281Z,88.05
2022-12-15T03:41:36.669Z,88.24
2022-12-15T03:44:03.328Z,87.85
2022-12-15T03:46:29.888Z,88.18
2022-12-15T03:48:56.404Z,87.98
2022-12-15T03:51:22.811Z,88.09
2022-12-15T03:53:49.273Z,88.17
2022-12-15T03:56:16.830Z,87.83
2022-12-15T03:58:43.360Z,87.57
2022-12-15T04:01:11.333Z,87.66
2022-12-15T04:03:37.951Z,87.39
2022-12-15T04:06:04.756Z,87.49
2022-12-15T04:08:31.228Z,86.81
2022-12-15T04:11:00.006Z,87.17
2022-12-15T04:13:26.383Z,87.29
2022-12-15T04:15:52.861Z,87.00
2022-12-15T04:18:20.263Z,87.14
2022-12-15T04:20:46.782Z,87.18
2022-12-15T04:23:16.656Z,87.04
2022-12-15T04:26:01.672Z,86.61
2022-12-15T04:28:46.651Z,86.44
2022-12-15T04:31:51.366Z,86.29
2022-12-15T04:34:42.393Z,86.55
2022-12-15T04:37:30.477Z,86.92
2022-12-15T04:40:16.014Z,86.72
2022-12-15T04:43:04.406Z,86.66
2022-12-15T04:45:49.392Z,86.27
2022-12-15T04:48:34.695Z,86.66
2022-12-15T04:51:20.046Z,86.26
2022-12-15T04:54:05.260Z,86.63
2022-12-15T04:56:50.289Z,86.61
2022-12-15T04:59:35.969Z,86.69
2022-12-15T05:02:21.257Z,86.61
2022-12-15T05:05:06.259Z,86.27
2022-12-15T05:07:51.295Z,85.75
2022-12-15T05:10:36.061Z,85.55
2022-12-15T05:13:27.741Z,85.41
2022-12-15T05:16:12.891Z,85.55
2022-12-15T05:18:58.070Z,86.02
2022-12-15T05:21:42.839Z,85.82
2022-12-15T05:24:27.707Z,85.71
2022-12-15T05:27:12.566Z,85.39
2022-12-15T05:29:57.386Z,86.06
2022-12-15T05:32:23.903Z,85.62
2022-12-15T05:34:50.320Z,85.91
2022-12-15T05:37:16.674Z,86.12
2022-12-15T05:39:43.212Z,85.83
2022-12-15T05:42:09.644Z,85.27
2022-12-15T05:44:36.088Z,85.37
2022-12-15T05:47:02.706Z,85.51
2022-12-15T05:49:29.080Z,85.60
2022-12-15T05:51:57.355Z,85.24
2022-12-15T05:54:23.809Z,84.88
2022-12-15T05:56:50.687Z,85.07
2022-12-15T05:59:17.734Z,85.03
2022-12-15T06:01:44.325Z,85.21
2022-12-15T06:04:14.752Z,85.16
2022-12-15T06:06:41.963Z,85.83
2022-12-15T06:09:08.774Z,86.04
2022-12-15T06:11:35.264Z,85.67
2022-12-15T06:14:02.603Z,86.11
2022-12-15T06:16:29.257Z,86.46
2022-12-15T06:19:00.687Z,86.39
2022-12-15T06:21:29.848Z,86.32
2022-12-15T06:23:57.140Z,87.43
2022-12-15T06:26:28.176Z,87.58
2022-12-15T06:28:56.902Z,87.09
2022-12-15T06:31:25.430Z,86.86
2022-12-15T06:33:57.661Z,86.85
2022-12-15T06:36:26.346Z,87.00
2022-12-15T06:38:52.818Z,86.96
2022-12-15T06:41:21.341Z,86.87
2022-12-15T06:43:52.478Z,86.65
2022-12-15T06:46:19.280Z,86.68
2022-12-15T06:48:46.654Z,86.59
2022-12-15T06:51:17.443Z,87.33
2022-12-15T06:53:54.288Z,87.27
2022-12-15T06:56:32.473Z,87.55
2022-12-15T06:59:01.068Z,87.15
2022-12-15T07:01:27.920Z,87.31
2022-12-15T07:03:55.307Z,87.78
2022-12-15T07:06:22.599Z,87.87
2022-12-15T07:08:52.421Z,87.94
2022-12-15T07:11:20.901Z,88.06
2022-12-15T07:13:52.101Z,87.62
2022-12-15T07:16:18.720Z,87.79
2022-12-15T07:18:45.303Z,87.48
2022-12-15T07:21:12.150Z,87.88
2022-12-15T07:23:56.347Z,88.36
2022-12-15T07:26:24.353Z,88.22
2022-12-15T07:28:51.085Z,88.39
2022-12-15T07:31:17.771Z,88.54
2022-12-15T07:33:44.487Z,88.39
2022-12-15T07:36:11.133Z,89.08
2022-12-15T07:38:37.514Z,89.65
2022-12-15T07:41:06.806Z,90.46
2022-12-15T07:43:33.847Z,91.06
2022-12-15T07:46:00.778Z,91.16
2022-12-15T07:48:27.754Z,91.99
2022-12-15T07:51:02.781Z,92.19
2022-12-15T07:53:33.896Z,92.58
2022-12-15T07:56:09.637Z,92.50
2022-12-15T07:58:37.992Z,92.71
2022-12-15T08:01:07.284Z,92.63
2022-12-15T08:03:34.834Z,92.89
2022-12-15T08:06:10.395Z,94.04
2022-12-15T08:08:37.135Z,93.99
2022-12-15T08:11:13.437Z,93.91
2022-12-15T08:16:28.148Z,93.88
2022-12-15T08:18:57.022Z,94.02
2022-12-15T08:21:23.562Z,94.11
2022-12-15T08:23:50.593Z,94.10
2022-12-15T08:26:18.687Z,94.23
2022-12-15T08:28:45.768Z,94.38
2022-12-15T08:31:16.638Z,94.21
2022-12-15T08:33:43.757Z,94.70
2022-12-15T08:36:12.882Z,94.50
2022-12-15T08:38:40.979Z,94.52
2022-12-15T08:41:13.178Z,94.89
2022-12-15T08:43:47.703Z,94.57
2022-12-15T08:46:20.913Z,94.84
2022-12-15T08:48:48.088Z,94.79
2022-12-15T08:51:15.006Z,94.97
2022-12-15T08:53:42.298Z,94.93
2022-12-15T08:56:12.160Z,95.13
2022-12-15T08:58:39.584Z,95.39
2022-12-15T09:01:17.319Z,95.24
2022-12-15T09:03:47.277Z,95.18
2022-12-15T09:06:23.548Z,95.26
2022-12-15T09:08:50.493Z,95.13
2022-12-15T09:11:17.591Z,95.35
2022-12-15T09:13:44.377Z,95.46
2022-12-15T09:16:14.563Z,95.20
2022-12-15T09:18:46.588Z,95.21
2022-12-15T09:21:14.470Z,95.11
2022-12-15T09:23:41.460Z,95.05
2022-12-15T09:26:14.274Z,94.80
2022-12-15T09:28:42.858Z,94.73
2022-12-15T09:31:20.705Z,94.57
2022-12-15T09:33:47.548Z,95.06
2022-12-15T09:36:14.456Z,95.22
2022-12-15T09:38:42.759Z,95.13
2022-12-15T09:41:15.408Z,94.93
2022-12-15T09:44:03.064Z,94.89
2022-12-15T09:46:51.269Z,94.39
2022-12-15T09:49:29.891Z,94.32
2022-12-15T09:52:08.879Z,94.20
2022-12-15T09:54:37.778Z,93.93
2022-12-15T09:57:24.180Z,93.98
2022-12-15T10:00:05.270Z,94.04
2022-12-15T10:02:40.809Z,94.15
2022-12-15T10:05:57.295Z,94.08
2022-12-15T10:08:22.070Z,94.19
2022-12-15T10:10:58.540Z,94.06
2022-12-15T10:13:37.575Z,94.21
2022-12-15T10:16:14.236Z,93.78
2022-12-15T10:19:01.884Z,93.62
2022-12-15T10:21:31.616Z,93.84
2022-12-15T10:24:44.364Z,93.61
2022-12-15T10:27:43.879Z,93.25
2022-12-15T10:30:14.009Z,93.25
2022-12-15T10:33:02.844Z,93.22
2022-12-15T10:35:32.984Z,93.43
2022-12-15T10:38:23.251Z,93.04
2022-12-15T10:40:53.469Z,93.19
2022-12-15T10:43:38.186Z,93.28
2022-12-15T10:46:18.407Z,93.02
2022-12-15T10:49:10.911Z,92.46
2022-12-15T10:51:43.595Z,92.67
2022-12-15T10:54:09.973Z,92.63
2022-12-15T10:56:47.524Z,92.43
2022-12-15T10:59:38.091Z,92.17
2022-12-15T11:02:29.459Z,91.52
2022-12-15T11:05:04.872Z,91.32
2022-12-15T11:07:41.445Z,91.51
2022-12-15T11:10:26.292Z,90.80
2022-12-15T11:13:15.671Z,90.51
2022-12-15T11:15:53.358Z,90.64
2022-12-15T11:18:41.073Z,90.18
2022-12-15T11:21:12.864Z,89.63
2022-12-15T11:23:50.544Z,89.84
2022-12-15T11:26:51.160Z,89.22
2022-12-15T11:29:27.158Z,89.02
2022-12-15T11:31:56.518Z,89.24
2022-12-15T11:34:32.154Z,88.83
2022-12-15T11:37:16.924Z,88.77
2022-12-15T11:39:57.292Z,88.81
2022-12-15T11:42:42.083Z,89.41
2022-12-15T11:45:37.902Z,89.68
2022-12-15T11:48:20.867Z,89.93
2022-12-15T11:51:02.463Z,90.25
2022-12-15T11:53:47.762Z,90.20
2022-12-15T11:56:24.912Z,90.29
2022-12-15T11:59:06.677Z,90.07
2022-12-15T12:05:12.694Z,90.14
2022-12-15T12:07:49.161Z,90.09
2022-12-15T12:10:30.856Z,89.92
2022-12-15T12:13:26.432Z,90.19
2022-12-15T12:16:17.891Z,90.19
2022-12-15T12:19:02.791Z,89.92
2022-12-15T12:21:40.865Z,90.64
2022-12-15T12:24:36.395Z,90.60
2022-12-15T12:27:26.174Z,90.14
2022-12-15T12:30:00.371Z,89.66
2022-12-15T12:32:50.432Z,89.72
2022-12-15T12:35:32.324Z,89.47
2022-12-15T12:38:03.858Z,89.53
2022-12-15T12:40:40.075Z,89.38
2022-12-15T12:43:15.150Z,89.19
2022-12-15T12:46:06.944Z,89.34
2022-12-15T12:48:38.536Z,89.58
2022-12-15T12:51:24.548Z,89.03
2022-12-15T12:53:51.710Z,89.13
2022-12-15T12:56:40.489Z,89.16
2022-12-15T12:59:28.813Z,88.80
2022-12-15T13:01:57.075Z,88.49
2022-12-15T13:04:29.624Z,88.50
2022-12-15T13:06:55.954Z,87.96
2022-12-15T13:09:25.426Z,87.56
2022-12-15T13:11:51.896Z,87.58
2022-12-15T13:14:31.419Z,87.36
2022-12-15T13:17:28.519Z,86.79
2022-12-15T13:19:58.098Z,87.04
2022-12-15T13:22:31.563Z,87.11
2022-12-15T13:24:58.334Z,86.83
2022-12-15T13:27:36.248Z,87.09
2022-12-15T13:30:05.682Z,86.84
2022-12-15T13:32:44.670Z,87.33
2022-12-15T13:35:11.827Z,87.21
2022-12-15T13:37:48.989Z,86.86
2022-12-15T13:40:37.255Z,87.30
2022-12-15T13:43:03.610Z,86.78
2022-12-15T13:45:55.901Z,86.70
2022-12-15T13:48:34.055Z,87.08
2022-12-15T13:51:25.722Z,86.93
2022-12-15T13:54:16.229Z,86.42
2022-12-15T13:57:01.351Z,86.58
2022-12-15T13:59:40.153Z,86.64
2022-12-15T14:02:25.450Z,86.16
2022-12-15T14:05:19.972Z,85.91
2022-12-15T14:07:58.685Z,85.91
2022-12-15T14:10:41.843Z,85.74
2022-12-15T14:13:16.117Z,84.78
2022-12-15T14:15:47.177Z,84.34
2022-12-15T14:18:39.094Z,83.52
2022-12-15T14:21:07.447Z,83.17
2022-12-15T14:24:03.935Z,83.10
2022-12-15T14:26:31.760Z,83.47
2022-12-15T14:29:03.844Z,83.50
2022-12-15T14:31:31.063Z,83.80
2022-12-15T14:34:07.915Z,83.79
2022-12-15T14:36:35.808Z,84.34
2022-12-15T14:39:06.506Z,84.16
2022-12-15T14:41:40.892Z,84.64
2022-12-15T14:44:36.960Z,85.06
2022-12-15T14:47:08.366Z,84.99
2022-12-15T14:49:45.132Z,85.04
2022-12-15T14:52:30.355Z,85.24
2022-12-15T14:55:00.029Z,85.63
2022-12-15T14:57:43.483Z,85.61
2022-12-15T15:00:25.716Z,86.19
2022-12-15T15:03:12.648Z,90.54
2022-12-15T15:06:02.154Z,86.52
2022-12-15T15:08:32.545Z,86.71
2022-12-15T15:11:04.488Z,86.73
2022-12-15T15:13:40.089Z,87.16
2022-12-15T15:16:13.732Z,87.11
2022-12-15T15:18:42.736Z,87.01
2022-12-15T15:21:17.000Z,87.25
2022-12-15T15:23:58.361Z,87.46
2022-12-15T15:26:26.087Z,87.49
2022-12-15T15:28:52.542Z,87.51
2022-12-15T15:31:41.548Z,87.73
2022-12-15T15:34:09.812Z,87.61
2022-12-15T15:36:39.484Z,87.55
2022-12-15T15:39:15.907Z,87.68
2022-12-15T15:41:42.628Z,87.38
2022-12-15T15:44:13.696Z,87.72
2022-12-15T15:46:58.215Z,88.22
2022-12-15T15:49:24.692Z,88.17
2022-12-15T15:51:51.158Z,88.72
2022-12-15T15:54:22.852Z,88.30
2022-12-15T15:56:49.303Z,88.61
2022-12-15T15:59:18.522Z,88.08
2022-12-15T16:01:48.653Z,88.98
2022-12-15T16:04:15.353Z,88.58
2022-12-15T16:06:46.990Z,88.69
2022-12-15T16:09:15.013Z,88.49
2022-12-15T16:11:41.485Z,88.53
2022-12-15T16:14:12.896Z,88.31
2022-12-15T16:16:39.324Z,88.58
2022-12-15T16:19:05.894Z,88.36
2022-12-15T16:21:32.646Z,88.66
2022-12-15T16:24:07.666Z,88.32
2022-12-15T16:26:37.173Z,87.75
2022-12-15T16:29:14.107Z,88.78
2022-12-15T16:31:45.313Z,88.55
2022-12-15T16:34:12.877Z,88.86
2022-12-15T16:36:40.815Z,88.77
2022-12-15T16:39:36.634Z,88.62
2022-12-15T16:42:04.152Z,89.18
2022-12-15T16:44:30.847Z,89.20
2022-12-15T16:46:57.744Z,89.30
2022-12-15T16:49:24.792Z,89.06
2022-12-15T16:51:53.354Z,89.20
2022-12-15T16:54:25.391Z,88.96
2022-12-15T16:56:53.684Z,88.25
2022-12-15T16:59:33.132Z,88.24
2022-12-15T17:02:01.079Z,88.45
2022-12-15T17:04:27.639Z,88.35
2022-12-15T17:06:54.257Z,88.30
2022-12-15T17:09:25.531Z,88.73
2022-12-15T17:11:52.094Z,88.64
2022-12-15T17:14:18.498Z,88.72
2022-12-15T17:16:46.147Z,88.79
2022-12-15T17:19:17.549Z,89.16
2022-12-15T17:21:53.391Z,89.12
2022-12-15T17:24:21.685Z,89.22
2022-12-15T17:26:49.196Z,88.72
2022-12-15T17:29:20.206Z,89.14
2022-12-15T17:31:47.000Z,89.01
2022-12-15T17:34:33.431Z,88.72
2022-12-15T17:37:02.592Z,88.67
2022-12-15T17:39:29.987Z,89.28
2022-12-15T17:42:01.523Z,89.18
2022-12-15T17:44:34.487Z,89.31
2022-12-15T17:47:02.263Z,89.01
2022-12-15T17:49:35.138Z,89.41
2022-12-15T17:52:05.296Z,89.25
2022-12-15T17:54:31.827Z,89.63
2022-12-15T17:56:58.589Z,89.21
2022-12-15T17:59:25.094Z,89.31
2022-12-15T18:01:52.029Z,89.46
2022-12-15T18:04:18.525Z,88.91
2022-12-15T18:06:45.226Z,88.52
2022-12-15T18:09:19.903Z,88.59
2022-12-15T18:11:46.997Z,88.48
2022-12-15T18:14:19.564Z,88.89
2022-12-15T18:16:46.462Z,89.21
2022-12-15T18:19:13.329Z,89.27
2022-12-15T18:21:40.026Z,89.60
2022-12-15T18:24:14.004Z,89.10
2022-12-15T18:26:40.488Z,89.63
2022-12-15T18:29:17.443Z,89.24
2022-12-15T18:31:46.511Z,89.13
2022-12-15T18:34:15.763Z,88.91
2022-12-15T18:36:42.955Z,89.30
2022-12-15T18:39:30.145Z,89.28
2022-12-15T18:41:57.382Z,89.12
2022-12-15T18:44:30.860Z,89.00
2022-12-15T18:46:57.725Z,88.57
2022-12-15T18:49:24.442Z,88.55
2022-12-15T18:51:51.327Z,88.53
2022-12-15T18:54:21.181Z,88.54
2022-12-15T18:56:47.738Z,88.80
2022-12-15T18:59:15.904Z,88.29
2022-12-15T19:01:46.111Z,88.87
2022-12-15T19:04:13.138Z,88.86
2022-12-15T19:06:40.887Z,88.74
2022-12-15T19:09:27.685Z,89.13
2022-12-15T19:12:12.901Z,88.96
2022-12-15T19:14:42.775Z,89.12
2022-12-15T19:17:36.744Z,88.52
2022-12-15T19:20:33.186Z,88.54
2022-12-15T19:22:59.961Z,88.30
2022-12-15T19:25:28.570Z,88.43
2022-12-15T19:27:59.302Z,88.18
2022-12-15T19:30:29.362Z,88.43
2022-12-15T19:32:55.776Z,88.29
2022-12-15T19:35:22.475Z,88.82
2022-12-15T19:37:50.088Z,89.09
2022-12-15T19:40:22.609Z,88.88
2022-12-15T19:42:49.669Z,88.47
2022-12-15T19:45:22.503Z,88.29
2022-12-15T19:47:49.068Z,87.83
2022-12-15T19:50:22.515Z,87.96
2022-12-15T19:52:52.365Z,88.03
2022-12-15T19:55:25.823Z,87.66
2022-12-15T19:57:52.511Z,87.56
2022-12-15T20:00:22.021Z,87.50
2022-12-15T20:02:51.453Z,87.64
2022-12-15T20:05:19.738Z,87.43
2022-12-15T20:07:47.130Z,87.36
2022-12-15T20:10:31.944Z,87.14
2022-12-15T20:13:00.138Z,87.68
2022-12-15T20:15:26.619Z,87.83
2022-12-15T20:17:57.010Z,88.06
2022-12-15T20:20:25.888Z,87.50
2022-12-15T20:22:55.193Z,87.32
2022-12-15T20:25:40.657Z,87.18
2022-12-15T20:28:15.374Z,87.22
2022-12-15T20:30:42.009Z,87.13
2022-12-15T20:33:08.509Z,87.62
2022-12-15T20:35:36.595Z,87.32
2022-12-15T20:38:17.228Z,86.79
2022-12-15T20:40:43.805Z,87.27
2022-12-15T20:43:18.207Z,87.38
2022-12-15T20:45:47.393Z,87.31
2022-12-15T20:48:15.084Z,87.30
2022-12-15T20:50:44.649Z,87.26
2022-12-15T20:53:22.980Z,87.20
2022-12-15T20:55:50.766Z,87.40
2022-12-15T20:58:17.728Z,87.06
2022-12-15T21:00:45.380Z,86.85
2022-12-15T21:03:19.737Z,86.62
2022-12-15T21:05:47.539Z,86.94
2022-12-15T21:08:25.973Z,86.64
2022-12-15T21:10:54.225Z,86.63
2022-12-15T21:13:27.352Z,86.68
2022-12-15T21:15:54.293Z,86.61
2022-12-15T21:19:11.025Z,86.55
2022-12-15T21:21:16.858Z,86.35
2022-12-15T21:23:43.396Z,86.45
2022-12-15T21:26:10.720Z,86.21
2022-12-15T21:28:37.080Z,86.08
2022-12-15T21:31:03.720Z,86.16
2022-12-15T21:33:30.225Z,86.20
2022-12-15T21:35:56.663Z,86.25
2022-12-15T21:38:31.312Z,86.31
2022-12-15T21:41:00.380Z,86.16
2022-12-15T21:43:29.528Z,85.93
2022-12-15T21:45:56.286Z,86.09
2022-12-15T21:48:41.283Z,85.87
2022-12-15T21:51:13.426Z,86.04
2022-12-15T21:53:40.132Z,85.46
2022-12-15T21:56:06.911Z,85.58
2022-12-15T21:58:35.095Z,85.71
2022-12-15T22:01:01.854Z,85.35
2022-12-15T22:03:28.419Z,85.21
2022-12-15T22:05:54.765Z,85.23
2022-12-15T22:08:22.144Z,85.52
2022-12-15T22:10:50.856Z,85.40
2022-12-15T22:13:20.916Z,85.47
2022-12-15T22:15:50.620Z,85.19
2022-12-15T22:18:22.404Z,85.54
2022-12-15T22:20:50.224Z,85.45
2022-12-15T22:23:18.693Z,85.42
2022-12-15T22:25:47.404Z,85.15
2022-12-15T22:28:33.094Z,84.86
2022-12-15T22:31:02.291Z,85.33
2022-12-15T22:33:28.708Z,85.28
2022-12-15T22:35:56.333Z,84.97
2022-12-15T22:38:23.421Z,85.72
2022-12-15T22:40:55.884Z,85.60
2022-12-15T22:43:41.565Z,85.81
2022-12-15T22:46:12.497Z,85.48
2022-12-15T22:48:41.755Z,85.33
2022-12-15T22:51:12.971Z,85.83
2022-12-15T22:53:39.499Z,86.13
2022-12-15T22:56:20.133Z,86.55
2022-12-15T22:58:48.165Z,86.64
2022-12-15T23:01:14.587Z,86.49
2022-12-15T23:03:41.064Z,86.45
2022-12-15T23:06:07.595Z,86.68
2022-12-15T23:08:33.986Z,86.84
2022-12-15T23:11:19.109Z,86.79
2022-12-15T23:13:45.552Z,86.55
2022-12-15T23:16:21.657Z,86.42
2022-12-15T23:18:53.432Z,86.00
2022-12-15T23:21:23.149Z,85.58
2022-12-15T23:23:49.648Z,86.11
2022-12-15T23:26:18.460Z,86.04
2022-12-15T23:28:45.776Z,86.29
2022-12-15T23:31:12.552Z,86.19
2022-12-15T23:33:39.058Z,86.11
2022-12-15T23:36:06.209Z,86.56
2022-12-15T23:38:32.715Z,86.02
2022-12-15T23:40:59.197Z,85.66
2022-12-15T23:43:27.362Z,85.97
2022-12-15T23:46:06.398Z,85.56
2022-12-15T23:48:38.603Z,86.18
2022-12-15T23:51:14.781Z,85.54
2022-12-15T23:53:42.185Z,85.38
2022-12-15T23:56:14.599Z,85.19
2022-12-15T23:58:43.074Z,85.33
